Time;durP1;ratioP1;P1;durP2;ratioP2;P2;SDS_P1;SDS_P2;PMS_P1;PMS_P2;Temp;Humidity;BMP_temperature;BMP_pressure;BME280_temperature;BME280_humidity;BME280_pressure;Samples;Min_cycle;Max_cycle;Signal;HPM_P1;HPM_P2
2022/03/05 00:00:11;;;;;;;1999.90;999.90;;;;;;;-0.87;47.95;102000.38;5012722;28;98066;-71
2022/03/05 00:02:40;;;;;;;1999.90;999.90;;;;;;;-0.86;47.70;102001.28;5013067;27;99141;-70
2022/03/05 00:05:09;;;;;;;1999.90;999.90;;;;;;;-0.87;47.45;102004.72;5015450;28;98231;-70
2022/03/05 00:07:37;;;;;;;1999.90;999.90;;;;;;;-0.91;47.47;102000.91;5012587;28;98152;-70
2022/03/05 00:10:06;;;;;;;1999.90;999.90;;;;;;;-0.93;47.72;102004.16;5010250;28;97708;-71
2022/03/05 00:12:33;;;;;;;1999.90;999.90;;;;;;;-0.95;47.96;101995.28;5010397;28;99510;-69
2022/03/05 00:15:03;;;;;;;1999.90;999.90;;;;;;;-0.96;47.75;102003.91;5012458;28;98647;-70
2022/03/05 00:17:31;;;;;;;1999.90;999.90;;;;;;;-0.97;47.91;102003.00;5014056;28;97594;-68
2022/03/05 00:19:59;;;;;;;1999.90;999.90;;;;;;;-0.97;48.16;101999.44;5011456;28;97759;-71
2022/03/05 00:22:27;;;;;;;1999.90;999.90;;;;;;;-0.96;47.83;102001.31;5013393;27;97673;-70
2022/03/05 00:24:55;;;;;;;1999.90;999.90;;;;;;;-0.95;48.09;102009.25;5012464;28;100483;-70
2022/03/05 00:27:23;;;;;;;1999.90;999.90;;;;;;;-0.97;47.98;102003.00;5015300;27;96957;-72
2022/03/05 00:29:52;;;;;;;1999.90;999.90;;;;;;;-0.96;47.78;102007.41;5015453;27;99400;-69
2022/03/05 00:32:21;;;;;;;1999.90;999.90;;;;;;;-0.97;47.76;102005.59;5010825;28;97999;-69
2022/03/05 00:34:49;;;;;;;1999.90;999.90;;;;;;;-0.98;48.18;101998.56;5031351;27;97672;-70
2022/03/05 00:37:18;;;;;;;1999.90;999.90;;;;;;;-0.98;47.80;102005.47;5012852;28;98002;-71
2022/03/05 00:39:46;;;;;;;1999.90;999.90;;;;;;;-0.96;47.61;102011.75;5012594;28;97591;-70
2022/03/05 00:42:14;;;;;;;1999.90;999.90;;;;;;;-1.01;48.23;102013.94;5010713;28;97750;-70
2022/03/05 00:44:42;;;;;;;1999.90;999.90;;;;;;;-0.67;47.67;102012.56;5010510;27;98259;-70
2022/03/05 00:47:15;;;;;;;1999.90;999.90;;;;;;;-0.88;47.62;102015.91;5028624;27;98431;-71
2022/03/05 00:49:44;;;;;;;1999.90;999.90;;;;;;;-0.89;47.96;102019.34;5029527;27;96823;-69
2022/03/05 00:52:12;;;;;;;1999.90;999.90;;;;;;;-0.59;47.51;102014.09;5012512;28;97918;-69
2022/03/05 00:54:39;;;;;;;1999.90;999.90;;;;;;;-0.81;47.75;102018.28;5011419;28;98000;-66
2022/03/05 00:57:08;;;;;;;1999.90;999.90;;;;;;;-0.91;48.43;102028.72;5012562;28;97847;-71
2022/03/05 00:59:36;;;;;;;1999.90;999.90;;;;;;;-0.98;48.10;102023.75;5013426;28;97561;-72
2022/03/05 01:02:04;;;;;;;1999.90;999.90;;;;;;;-1.00;48.49;102025.31;5013216;27;97637;-69
2022/03/05 01:04:32;;;;;;;1999.90;999.90;;;;;;;-1.03;48.46;102030.28;5009876;28;97959;-72
2022/03/05 01:07:01;;;;;;;1999.90;999.90;;;;;;;-1.05;48.45;102024.03;5012760;28;97362;-69
2022/03/05 01:09:28;;;;;;;1999.90;999.90;;;;;;;-1.07;48.28;102025.56;5012734;27;97658;-69
2022/03/05 01:11:57;;;;;;;1999.90;999.90;;;;;;;-1.10;48.59;102018.38;5012718;28;97549;-70
2022/03/05 01:14:25;;;;;;;1999.90;999.90;;;;;;;-1.12;48.53;102022.53;5008456;27;99687;-70
2022/03/05 01:16:53;;;;;;;1999.90;999.90;;;;;;;-1.15;48.67;102022.28;5013034;28;97828;-69
2022/03/05 01:19:20;;;;;;;1999.90;999.90;;;;;;;-1.15;48.53;102021.38;5012001;27;99313;-68
2022/03/05 01:21:48;;;;;;;1999.90;999.90;;;;;;;-1.17;48.20;102021.25;5011416;28;97977;-68
2022/03/05 01:24:18;;;;;;;1999.90;999.90;;;;;;;-1.20;48.74;102020.06;5012246;27;99254;-69
2022/03/05 01:26:45;;;;;;;1999.90;999.90;;;;;;;-1.23;47.95;102019.81;5013033;28;97922;-69
2022/03/05 01:29:13;;;;;;;1999.90;999.90;;;;;;;-1.28;48.54;102014.16;5031291;27;98829;-68
2022/03/05 01:31:42;;;;;;;1999.90;999.90;;;;;;;-1.24;48.66;102015.34;5012635;27;100364;-68
2022/03/05 01:34:10;;;;;;;1999.90;999.90;;;;;;;-1.22;48.52;102021.63;5011176;28;97641;-69
2022/03/05 01:36:38;;;;;;;1999.90;999.90;;;;;;;-1.28;48.20;102018.47;5014995;27;97640;-67
2022/03/05 01:39:05;;;;;;;1999.90;999.90;;;;;;;-1.30;48.62;102017.41;5018951;28;97274;-70
2022/03/05 01:41:35;;;;;;;1999.90;999.90;;;;;;;-1.33;48.43;102019.75;5018928;28;98896;-69
2022/03/05 01:44:03;;;;;;;1999.90;999.90;;;;;;;-1.34;48.42;102011.00;5015510;28;100474;-70
2022/03/05 01:46:32;;;;;;;1999.90;999.90;;;;;;;-1.35;48.83;102008.25;5018963;27;97880;-69
2022/03/05 01:49:02;;;;;;;1999.90;999.90;;;;;;;-1.33;48.09;102011.94;5018164;28;97490;-70
2022/03/05 01:51:29;;;;;;;1999.90;999.90;;;;;;;-1.01;47.98;102003.50;5016369;28;99011;-70
2022/03/05 01:53:57;;;;;;;1999.90;999.90;;;;;;;-0.78;47.84;102002.88;5014455;28;99705;-68
2022/03/05 01:56:26;;;;;;;1999.90;999.90;;;;;;;-0.62;47.19;101995.56;5016047;28;98447;-69
2022/03/05 01:58:56;;;;;;;1999.90;999.90;;;;;;;-0.49;47.39;101998.44;5017028;28;97424;-69
2022/03/05 02:01:26;;;;;;;1999.90;999.90;;;;;;;-0.81;47.78;101999.97;5017761;28;97715;-69
2022/03/05 02:03:55;;;;;;;1999.90;999.90;;;;;;;-0.94;47.89;101999.75;5017668;28;100836;-70
2022/03/05 02:06:24;;;;;;;1999.90;999.90;;;;;;;-1.08;48.34;101989.78;5013975;28;98002;-69
2022/03/05 02:08:51;;;;;;;1999.90;999.90;;;;;;;-1.21;48.63;101992.09;5018483;28;98116;-68
2022/03/05 02:11:19;;;;;;;1999.90;999.90;;;;;;;-1.28;48.61;102000.19;5017917;28;97706;-68
2022/03/05 02:13:47;;;;;;;1999.90;999.90;;;;;;;-1.35;48.85;102000.44;5017237;28;99944;-70
2022/03/05 02:16:16;;;;;;;1999.90;999.90;;;;;;;-1.43;48.79;102001.47;5017991;28;97178;-69
2022/03/05 02:18:47;;;;;;;1999.90;999.90;;;;;;;-1.48;49.36;101997.50;5018147;28;97279;-71
2022/03/05 02:21:17;;;;;;;1999.90;999.90;;;;;;;-1.47;48.84;101994.16;5016713;27;99396;-67
2022/03/05 02:23:45;;;;;;;1999.90;999.90;;;;;;;-1.48;48.97;101992.28;5013168;27;98834;-69
2022/03/05 02:26:12;;;;;;;1999.90;999.90;;;;;;;-1.51;49.40;101984.19;5034878;27;97592;-69
2022/03/05 02:28:40;;;;;;;1999.90;999.90;;;;;;;-1.55;49.08;101988.25;5016729;27;98700;-71
2022/03/05 02:31:08;;;;;;;1999.90;999.90;;;;;;;-1.55;49.38;101992.53;5015186;28;98536;-71
2022/03/05 02:33:36;;;;;;;1999.90;999.90;;;;;;;-1.57;49.49;101997.63;5010708;27;97679;-71
2022/03/05 02:36:06;;;;;;;1999.90;999.90;;;;;;;-1.56;48.77;101995.94;5012632;27;98438;-70
2022/03/05 02:38:35;;;;;;;1999.90;999.90;;;;;;;-1.23;48.74;101999.81;5009053;27;99685;-71
2022/03/05 02:41:02;;;;;;;1999.90;999.90;;;;;;;-1.46;48.61;102002.09;4992518;27;100850;-70
2022/03/05 02:43:30;;;;;;;1999.90;999.90;;;;;;;-1.54;48.76;101989.16;5016391;27;101082;-70
2022/03/05 02:45:58;;;;;;;1999.90;999.90;;;;;;;-1.57;49.19;101994.09;5014727;28;97418;-70
2022/03/05 02:48:26;;;;;;;1999.90;999.90;;;;;;;-1.62;49.13;101995.38;5015025;28;97219;-68
2022/03/05 02:50:54;;;;;;;1999.90;999.90;;;;;;;-1.67;49.54;101994.06;5013273;28;99624;-69
2022/03/05 02:53:22;;;;;;;1999.90;999.90;;;;;;;-1.71;49.25;101990.28;5014655;28;99002;-69
2022/03/05 02:55:51;;;;;;;1999.90;999.90;;;;;;;-1.74;48.88;101983.88;5012456;27;96995;-70
2022/03/05 02:58:19;;;;;;;1999.90;999.90;;;;;;;-1.78;49.00;101982.69;5015240;27;97129;-70
2022/03/05 03:00:47;;;;;;;1999.90;999.90;;;;;;;-1.82;49.14;101986.69;5011784;28;97815;-69
2022/03/05 03:03:15;;;;;;;1999.90;999.90;;;;;;;-1.85;49.27;101980.28;5009279;28;97553;-68
2022/03/05 03:05:43;;;;;;;1999.90;999.90;;;;;;;-1.88;49.08;101985.22;5013670;27;97397;-68
2022/03/05 03:08:10;;;;;;;1999.90;999.90;;;;;;;-1.92;49.88;101968.41;5010678;28;97720;-68
2022/03/05 03:10:38;;;;;;;1999.90;999.90;;;;;;;-1.94;49.58;101980.38;5017002;28;98775;-70
2022/03/05 03:13:07;;;;;;;1999.90;999.90;;;;;;;-1.96;49.46;101981.00;5011003;28;97394;-70
2022/03/05 03:15:35;;;;;;;1999.90;999.90;;;;;;;-1.98;49.44;101987.81;5013393;28;97170;-68
2022/03/05 03:18:02;;;;;;;1999.90;999.90;;;;;;;-2.01;49.03;101992.72;5013163;28;97278;-70
2022/03/05 03:20:30;;;;;;;1999.90;999.90;;;;;;;-2.04;49.41;101993.38;5013180;27;98776;-69
2022/03/05 03:22:59;;;;;;;1999.90;999.90;;;;;;;-1.67;49.47;101986.25;5010362;27;99473;-69
2022/03/05 03:25:27;;;;;;;1999.90;999.90;;;;;;;-1.92;49.53;101993.56;5009769;27;98517;-69
2022/03/05 03:27:54;;;;;;;1999.90;999.90;;;;;;;-2.00;49.81;101994.59;5012489;27;98954;-71
2022/03/05 03:30:24;;;;;;;1999.90;999.90;;;;;;;-2.07;49.99;101995.69;5009677;28;99614;-70
2022/03/05 03:32:51;;;;;;;1999.90;999.90;;;;;;;-1.70;48.64;101999.00;5005387;28;98012;-69
2022/03/05 03:35:19;;;;;;;1999.90;999.90;;;;;;;-1.98;49.27;102001.75;5005411;28;99736;-70
2022/03/05 03:37:47;;;;;;;1999.90;999.90;;;;;;;-2.08;49.47;102000.78;5009394;28;98308;-70
2022/03/05 03:40:17;;;;;;;1999.90;999.90;;;;;;;-2.15;50.00;101999.31;5004970;28;98642;-70
2022/03/05 03:42:47;;;;;;;1999.90;999.90;;;;;;;-2.23;49.89;102012.38;5009388;28;98264;-70
2022/03/05 03:45:16;;;;;;;1999.90;999.90;;;;;;;-2.29;49.91;102017.94;5006940;28;98603;-68
2022/03/05 03:47:47;;;;;;;1999.90;999.90;;;;;;;-2.35;50.04;102008.66;5007630;28;98641;-70
2022/03/05 03:50:16;;;;;;;1999.90;999.90;;;;;;;-2.39;50.42;102007.47;5004793;27;99813;-71
2022/03/05 03:52:44;;;;;;;1999.90;999.90;;;;;;;-2.41;50.57;102008.09;5013037;27;99252;-71
2022/03/05 03:55:14;;;;;;;1999.90;999.90;;;;;;;-2.43;50.44;102014.84;5010309;27;97128;-70
2022/03/05 03:57:42;;;;;;;1999.90;999.90;;;;;;;-2.46;50.26;102007.69;5015610;27;97641;-70
2022/03/05 04:00:12;;;;;;;1999.90;999.90;;;;;;;-2.07;49.33;102008.72;5011403;27;98075;-69
2022/03/05 04:02:40;;;;;;;1999.90;999.90;;;;;;;-2.33;50.35;102004.50;5014183;28;98560;-69
2022/03/05 04:05:10;;;;;;;1999.90;999.90;;;;;;;-2.40;50.19;102012.53;5012819;28;96787;-71
2022/03/05 04:10:24;;;;;;;1999.90;999.90;;;;;;;-1.80;48.68;102005.13;5010481;27;98044;-71
2022/03/05 04:12:52;;;;;;;1999.90;999.90;;;;;;;-2.16;49.63;102022.63;5013053;27;99051;-70
2022/03/05 04:15:20;;;;;;;1999.90;999.90;;;;;;;-2.29;50.02;102023.16;5010445;28;97841;-68
2022/03/05 04:17:51;;;;;;;1999.90;999.90;;;;;;;-2.37;49.88;102029.38;5015645;28;97842;-69
2022/03/05 04:20:20;;;;;;;1999.90;999.90;;;;;;;-2.02;49.27;102025.75;5012705;28;98326;-70
2022/03/05 04:22:48;;;;;;;1999.90;999.90;;;;;;;-2.30;49.09;102023.03;5013531;28;98043;-68
2022/03/05 04:25:16;;;;;;;1999.90;999.90;;;;;;;-1.96;49.14;102026.28;5010967;27;98004;-69
2022/03/05 04:27:44;;;;;;;1999.90;999.90;;;;;;;-2.27;49.89;102033.75;5031234;27;96859;-70
2022/03/05 04:30:12;;;;;;;1999.90;999.90;;;;;;;-2.39;49.28;102028.31;5010294;28;99604;-69
2022/03/05 04:32:40;;;;;;;1999.90;999.90;;;;;;;-2.47;49.88;102034.50;5012414;28;99221;-69
2022/03/05 04:35:09;;;;;;;1999.90;999.90;;;;;;;-2.57;49.65;102037.03;5009110;28;97432;-69
2022/03/05 04:37:39;;;;;;;1999.90;999.90;;;;;;;-2.65;50.32;102029.25;5011638;28;98012;-70
2022/03/05 04:40:08;;;;;;;1999.90;999.90;;;;;;;-2.74;50.44;102034.53;5009204;28;97620;-70
2022/03/05 04:42:36;;;;;;;1999.90;999.90;;;;;;;-2.79;49.90;102033.19;5008838;28;100617;-70
2022/03/05 04:45:05;;;;;;;1999.90;999.90;;;;;;;-2.86;49.88;102033.41;5011606;28;97036;-70
2022/03/05 04:47:33;;;;;;;1999.90;999.90;;;;;;;-2.90;50.61;102033.88;5011812;27;97392;-68
2022/03/05 04:50:01;;;;;;;1999.90;999.90;;;;;;;-2.91;49.88;102042.47;5012185;27;99561;-68
2022/03/05 04:52:28;;;;;;;1999.90;999.90;;;;;;;-2.94;50.09;102036.94;5012769;27;98321;-70
2022/03/05 04:54:57;;;;;;;1999.90;999.90;;;;;;;-2.97;50.57;102031.47;5011122;27;97714;-68
2022/03/05 04:57:25;;;;;;;1999.90;999.90;;;;;;;-2.98;49.90;102033.16;5012695;28;97615;-68
2022/03/05 04:59:56;;;;;;;1999.90;999.90;;;;;;;-2.99;50.56;102044.34;5010088;27;100367;-69
2022/03/05 05:02:24;;;;;;;1999.90;999.90;;;;;;;-3.04;50.08;102039.47;4988277;28;101267;-68
2022/03/05 05:04:53;;;;;;;1999.90;999.90;;;;;;;-2.63;49.71;102045.94;5010035;28;97951;-69
2022/03/05 05:07:21;;;;;;;1999.90;999.90;;;;;;;-2.37;49.10;102044.09;5010554;27;97268;-69
2022/03/05 05:09:49;;;;;;;1999.90;999.90;;;;;;;-2.72;50.06;102043.41;5012870;27;98618;-70
2022/03/05 05:12:18;;;;;;;1999.90;999.90;;;;;;;-2.85;49.62;102045.63;5009789;27;99446;-69
2022/03/05 05:14:46;;;;;;;1999.90;999.90;;;;;;;-2.91;49.60;102052.88;5009668;28;97347;-68
2022/03/05 05:17:13;;;;;;;1999.90;999.90;;;;;;;-2.96;49.89;102046.31;5011476;27;97937;-68
2022/03/05 05:19:41;;;;;;;1999.90;999.90;;;;;;;-2.56;48.75;102049.28;5009433;28;99903;-70
2022/03/05 05:22:09;;;;;;;1999.90;999.90;;;;;;;-2.35;48.37;102046.06;5004796;28;98518;-69
2022/03/05 05:24:37;;;;;;;1999.90;999.90;;;;;;;-2.22;48.20;102054.25;5012704;28;96811;-68
2022/03/05 05:27:05;;;;;;;1999.90;999.90;;;;;;;-2.62;49.33;102050.41;5009038;28;97041;-68
2022/03/05 05:29:35;;;;;;;1999.90;999.90;;;;;;;-2.79;49.66;102048.81;5025780;27;99534;-70
2022/03/05 05:32:08;;;;;;;1999.90;999.90;;;;;;;-2.87;49.69;102044.56;4994768;28;98985;-69
2022/03/05 05:34:36;;;;;;;1999.90;999.90;;;;;;;-2.95;50.05;102045.56;5007138;28;98259;-70
2022/03/05 05:37:05;;;;;;;1999.90;999.90;;;;;;;-3.03;49.71;102047.41;5007979;28;98947;-68
2022/03/05 05:39:33;;;;;;;1999.90;999.90;;;;;;;-3.07;50.33;102040.09;5023229;27;97930;-69
2022/03/05 05:42:01;;;;;;;1999.90;999.90;;;;;;;-3.14;50.37;102040.28;5004948;28;100058;-71
2022/03/05 05:44:29;;;;;;;1999.90;999.90;;;;;;;-3.18;50.08;102045.03;5006349;28;97212;-69
2022/03/05 05:46:58;;;;;;;1999.90;999.90;;;;;;;-3.22;50.24;102048.13;5023310;27;97629;-68
2022/03/05 05:49:26;;;;;;;1999.90;999.90;;;;;;;-3.25;50.54;102042.59;5011362;28;97685;-69
2022/03/05 05:51:54;;;;;;;1999.90;999.90;;;;;;;-3.27;50.58;102049.34;5005966;28;99467;-69
2022/03/05 05:54:22;;;;;;;1999.90;999.90;;;;;;;-3.30;50.93;102046.47;5006468;28;97784;-68
2022/03/05 05:56:49;;;;;;;1999.90;999.90;;;;;;;-3.30;50.26;102049.06;5008891;27;97572;-70
2022/03/05 05:59:17;;;;;;;1999.90;999.90;;;;;;;-3.32;50.38;102048.94;5010062;27;98708;-68
2022/03/05 06:01:45;;;;;;;1999.90;999.90;;;;;;;-3.33;50.10;102043.59;5010422;28;99737;-68
2022/03/05 06:04:14;;;;;;;1999.90;999.90;;;;;;;-3.34;50.54;102046.94;5013244;28;96944;-67
2022/03/05 06:06:42;;;;;;;1999.90;999.90;;;;;;;-3.34;50.25;102054.75;5010095;27;98145;-70
2022/03/05 06:09:10;;;;;;;1999.90;999.90;;;;;;;-3.34;50.08;102054.75;5009831;28;99233;-67
2022/03/05 06:11:38;;;;;;;1999.90;999.90;;;;;;;-3.34;50.23;102049.53;5007254;27;99756;-68
2022/03/05 06:14:06;;;;;;;1999.90;999.90;;;;;;;-3.36;50.29;102057.19;5009148;27;98618;-67
2022/03/05 06:16:34;;;;;;;1999.90;999.90;;;;;;;-3.36;50.45;102064.09;5026998;27;96873;-69
2022/03/05 06:19:02;;;;;;;1999.90;999.90;;;;;;;-3.36;50.25;102058.88;5025232;22;98087;-73
2022/03/05 06:21:31;;;;;;;1999.90;999.90;;;;;;;-2.97;49.43;102057.50;4997939;27;101059;-74
2022/03/05 06:23:59;;;;;;;1999.90;999.90;;;;;;;-2.70;49.06;102060.09;4999549;27;97695;-74
2022/03/05 06:26:28;;;;;;;1999.90;999.90;;;;;;;-2.98;50.46;102061.78;5016199;27;98303;-74
2022/03/05 06:28:56;;;;;;;1999.90;999.90;;;;;;;-3.05;50.73;102064.59;5001560;27;97776;-74
2022/03/05 06:31:23;;;;;;;1999.90;999.90;;;;;;;-3.05;50.10;102059.38;5021153;27;97900;-74
2022/03/05 06:33:51;;;;;;;1999.90;999.90;;;;;;;-3.07;50.44;102066.13;4997590;27;97103;-74
2022/03/05 06:36:19;;;;;;;1999.90;999.90;;;;;;;-3.09;50.19;102066.72;5053658;22;98274;-72
2022/03/05 06:38:49;;;;;;;1999.90;999.90;;;;;;;-3.14;50.31;102068.91;5050911;27;98242;-72
2022/03/05 06:41:16;;;;;;;1999.90;999.90;;;;;;;-3.14;50.73;102073.19;5069143;27;98945;-72
2022/03/05 06:43:44;;;;;;;1999.90;999.90;;;;;;;-3.15;50.32;102071.38;5052616;27;97273;-72
2022/03/05 06:46:13;;;;;;;1999.90;999.90;;;;;;;-3.16;50.43;102065.25;5055555;27;97496;-72
2022/03/05 06:48:41;;;;;;;1999.90;999.90;;;;;;;-2.77;49.97;102067.19;5055738;27;97929;-72
2022/03/05 06:51:09;;;;;;;1999.90;999.90;;;;;;;-2.53;49.52;102075.66;5054693;27;99330;-72
2022/03/05 06:53:37;;;;;;;1999.90;999.90;;;;;;;-2.35;49.33;102079.97;5053741;27;99180;-72
2022/03/05 06:56:06;;;;;;;1999.90;999.90;;;;;;;-2.19;48.94;102085.81;5046461;27;98017;-72
2022/03/05 06:58:34;;;;;;;1999.90;999.90;;;;;;;-2.52;50.57;102089.56;5055072;27;97595;-72
2022/03/05 07:01:02;;;;;;;1999.90;999.90;;;;;;;-2.18;50.11;102090.25;5053892;27;98795;-72
2022/03/05 07:03:30;;;;;;;1999.90;999.90;;;;;;;-1.98;49.34;102079.97;5051190;27;97840;-72
2022/03/05 07:05:58;;;;;;;1999.90;999.90;;;;;;;-2.32;50.38;102088.06;5053446;27;98361;-72
2022/03/05 07:08:27;;;;;;;1999.90;999.90;;;;;;;-2.41;50.32;102084.59;5057967;27;101599;-68
2022/03/05 07:10:55;;;;;;;1999.90;999.90;;;;;;;-2.46;50.66;102092.75;5057450;27;99154;-72
2022/03/05 07:13:24;;;;;;;1999.90;999.90;;;;;;;-2.50;50.26;102091.56;5059029;27;96856;-72
2022/03/05 07:15:52;;;;;;;1999.90;999.90;;;;;;;-2.53;50.58;102091.28;5060791;27;98210;-72
2022/03/05 07:18:20;;;;;;;1999.90;999.90;;;;;;;-2.55;50.65;102094.50;5056027;27;99572;-72
2022/03/05 07:20:48;;;;;;;1999.90;999.90;;;;;;;-2.55;50.55;102102.31;5058436;27;97858;-72
2022/03/05 07:23:16;;;;;;;1999.90;999.90;;;;;;;-2.56;51.12;102098.78;5058206;27;97718;-72
2022/03/05 07:25:44;;;;;;;1999.90;999.90;;;;;;;-2.55;50.40;102103.25;5053446;27;97345;-73
2022/03/05 07:28:12;;;;;;;1999.90;999.90;;;;;;;-2.55;51.11;102113.66;5057159;27;97622;-72
2022/03/05 07:30:42;;;;;;;1999.90;999.90;;;;;;;-2.53;50.92;102114.72;5037474;27;99519;-72
2022/03/05 07:33:14;;;;;;;1999.90;999.90;;;;;;;-2.52;50.79;102103.53;5038141;27;97319;-72
2022/03/05 07:35:42;;;;;;;1999.90;999.90;;;;;;;-2.50;50.77;102107.19;5052238;27;97740;-72
2022/03/05 07:38:10;;;;;;;1999.90;999.90;;;;;;;-2.50;51.04;102111.47;5054217;27;99202;-73
2022/03/05 07:40:38;;;;;;;1999.90;999.90;;;;;;;-2.50;50.75;102116.69;5071258;27;98263;-72
2022/03/05 07:43:06;;;;;;;1999.90;999.90;;;;;;;-2.48;50.42;102117.75;5055733;27;97279;-72
2022/03/05 07:45:34;;;;;;;1999.90;999.90;;;;;;;-2.48;50.99;102112.53;5048747;27;98127;-72
2022/03/05 07:48:03;;;;;;;1999.90;999.90;;;;;;;-2.48;50.38;102110.84;5046081;27;99457;-72
2022/03/05 07:50:32;;;;;;;1999.90;999.90;;;;;;;-2.46;51.06;102114.53;5051791;27;98707;-72
2022/03/05 07:53:00;;;;;;;1999.90;999.90;;;;;;;-2.43;50.41;102112.19;5051422;27;97413;-72
2022/03/05 07:55:27;;;;;;;1999.90;999.90;;;;;;;-2.39;50.88;102118.63;5055661;27;97047;-72
2022/03/05 07:57:56;;;;;;;1999.90;999.90;;;;;;;-2.37;50.77;102117.06;5056897;27;97736;-72
2022/03/05 08:00:23;;;;;;;1999.90;999.90;;;;;;;-2.37;50.38;102117.06;5055828;27;97463;-72
2022/03/05 08:02:52;;;;;;;1999.90;999.90;;;;;;;-2.34;50.74;102114.75;5054773;27;99482;-72
2022/03/05 08:05:21;;;;;;;1999.90;999.90;;;;;;;-2.31;50.77;102120.25;5056462;27;97534;-72
2022/03/05 08:07:50;;;;;;;1999.90;999.90;;;;;;;-2.28;50.53;102123.13;5074950;27;98945;-72
2022/03/05 08:10:18;;;;;;;1999.90;999.90;;;;;;;-2.25;50.80;102131.22;5052652;27;98557;-73
2022/03/05 08:12:46;;;;;;;1999.90;999.90;;;;;;;-2.23;50.43;102124.47;5051951;27;97639;-72
2022/03/05 08:15:14;;;;;;;1999.90;999.90;;;;;;;-2.21;50.40;102125.53;5056935;27;101299;-72
2022/03/05 08:17:49;;;;;;;1999.90;999.90;;;;;;;-2.21;50.44;102128.16;5058877;27;100796;-72
2022/03/05 08:20:17;;;;;;;1999.90;999.90;;;;;;;-2.16;50.57;102127.84;5046072;27;99212;-72
2022/03/05 08:22:47;;;;;;;1999.90;999.90;;;;;;;-2.14;50.48;102136.72;5051249;27;96957;-71
2022/03/05 08:25:15;;;;;;;1999.90;999.90;;;;;;;-2.13;50.75;102132.44;5052347;27;98604;-72
2022/03/05 08:27:43;;;;;;;1999.90;999.90;;;;;;;-2.10;50.85;102136.25;5053690;27;99484;-72
2022/03/05 08:30:12;;;;;;;1999.90;999.90;;;;;;;-2.05;49.89;102136.66;5054530;27;97623;-72
2022/03/05 08:32:40;;;;;;;1999.90;999.90;;;;;;;-2.01;50.08;102129.28;5053666;27;97210;-72
2022/03/05 08:35:09;;;;;;;1999.90;999.90;;;;;;;-1.95;49.94;102128.91;5053949;27;97452;-71
2022/03/05 08:37:37;;;;;;;1999.90;999.90;;;;;;;-1.92;50.37;102130.13;5054253;27;98950;-71
2022/03/05 08:40:10;;;;;;;1999.90;999.90;;;;;;;-1.86;50.34;102128.09;5058532;27;97822;-72
2022/03/05 08:42:37;;;;;;;1999.90;999.90;;;;;;;-1.80;50.42;102125.13;5057107;27;98329;-72
2022/03/05 08:45:07;;;;;;;1999.90;999.90;;;;;;;-1.76;50.02;102127.19;5057351;27;97064;-72
2022/03/05 08:47:35;;;;;;;1999.90;999.90;;;;;;;-1.70;49.53;102122.56;5034507;27;98728;-72
2022/03/05 08:50:04;;;;;;;1999.90;999.90;;;;;;;-1.66;49.55;102127.28;5056357;27;99726;-72
2022/03/05 08:52:35;;;;;;;1999.90;999.90;;;;;;;-1.61;49.85;102122.47;5058228;27;96814;-72
2022/03/05 08:55:07;;;;;;;1999.90;999.90;;;;;;;-1.55;49.62;102117.81;5057095;27;97388;-72
2022/03/05 08:57:35;;;;;;;1999.90;999.90;;;;;;;-1.49;49.25;102121.00;5057125;27;98193;-71
2022/03/05 09:00:06;;;;;;;1999.90;999.90;;;;;;;-1.42;49.65;102107.72;5049570;27;99327;-73
2022/03/05 09:02:34;;;;;;;1999.90;999.90;;;;;;;-1.37;49.69;102109.94;5051517;27;98037;-72
2022/03/05 09:05:03;;;;;;;1999.90;999.90;;;;;;;-1.30;49.00;102112.31;5045851;27;97781;-72
2022/03/05 09:07:31;;;;;;;1999.90;999.90;;;;;;;-1.23;49.11;102113.81;5042728;27;99806;-70
2022/03/05 09:09:59;;;;;;;1999.90;999.90;;;;;;;-1.16;49.23;102116.19;5050016;27;99883;-70
2022/03/05 09:12:28;;;;;;;1999.90;999.90;;;;;;;-1.11;48.79;102110.59;5053829;27;96929;-71
2022/03/05 09:14:56;;;;;;;1999.90;999.90;;;;;;;-1.04;48.95;102107.72;5068616;27;98059;-71
2022/03/05 09:17:24;;;;;;;1999.90;999.90;;;;;;;-0.96;48.48;102104.06;5052681;27;101218;-73
2022/03/05 09:19:53;;;;;;;1999.90;999.90;;;;;;;-0.88;48.69;102104.75;5056054;27;99750;-71
2022/03/05 09:22:21;;;;;;;1999.90;999.90;;;;;;;-0.82;48.70;102103.63;5056721;27;97223;-71
2022/03/05 09:24:49;;;;;;;1999.90;999.90;;;;;;;-0.76;48.23;102105.84;5041777;27;97100;-71
2022/03/05 09:27:17;;;;;;;1999.90;999.90;;;;;;;-0.69;48.30;102104.66;5063137;27;97898;-71
2022/03/05 09:29:46;;;;;;;1999.90;999.90;;;;;;;-0.66;48.32;102092.78;5059821;27;97399;-72
2022/03/05 09:32:14;;;;;;;1999.90;999.90;;;;;;;-0.60;47.79;102101.16;5062201;27;96777;-72
2022/03/05 09:34:42;;;;;;;1999.90;999.90;;;;;;;-0.56;48.25;102090.19;5061277;27;96788;-72
2022/03/05 09:37:10;;;;;;;1999.90;999.90;;;;;;;-0.50;48.05;102095.03;5056414;27;97767;-72
2022/03/05 09:39:37;;;;;;;1999.90;999.90;;;;;;;-0.46;47.90;102091.88;5053346;27;98604;-72
2022/03/05 09:42:06;;;;;;;1999.90;999.90;;;;;;;-0.42;47.72;102087.06;5054223;27;99179;-72
2022/03/05 09:44:38;;;;;;;1999.90;999.90;;;;;;;-0.35;47.42;102089.41;5055938;27;97171;-72
2022/03/05 09:47:08;;;;;;;1999.90;999.90;;;;;;;-0.29;47.37;102092.56;5058733;27;98148;-72
2022/03/05 09:49:38;;;;;;;1999.90;999.90;;;;;;;-0.21;47.21;102091.47;5048168;27;97986;-72
2022/03/05 09:52:07;;;;;;;1999.90;999.90;;;;;;;-0.21;47.55;102096.72;5052687;27;97234;-72
2022/03/05 09:54:36;;;;;;;1999.90;999.90;;;;;;;-0.16;47.20;102086.66;5056881;27;97161;-70
2022/03/05 09:57:09;;;;;;;1999.90;999.90;;;;;;;-0.11;46.95;102094.09;5052878;27;98947;-70
2022/03/05 09:59:37;;;;;;;1999.90;999.90;;;;;;;-0.05;47.08;102081.56;5057232;27;99425;-70
2022/03/05 10:02:08;;;;;;;1999.90;999.90;;;;;;;-0.01;47.05;102081.00;5054463;27;97294;-70
2022/03/05 10:04:36;;;;;;;1999.90;999.90;;;;;;;0.02;46.66;102078.66;5055555;27;97605;-70
2022/03/05 10:07:12;;;;;;;1999.90;999.90;;;;;;;0.06;46.34;102085.94;5053700;27;99464;-70
2022/03/05 10:09:41;;;;;;;1999.90;999.90;;;;;;;0.13;46.72;102083.09;5057280;27;100668;-70
2022/03/05 10:12:31;;;;;;;1999.90;999.90;;;;;;;0.15;46.02;102081.53;5059690;27;97749;-67
2022/03/05 10:15:10;;;;;;;1999.90;999.90;;;;;;;0.20;46.42;102085.41;5059497;27;97953;-67
2022/03/05 10:17:55;;;;;;;1999.90;999.90;;;;;;;0.24;45.68;102076.16;5059824;27;97868;-70
2022/03/05 10:20:24;;;;;;;1999.90;999.90;;;;;;;0.31;46.48;102081.09;5051595;27;99023;-69
2022/03/05 10:23:11;;;;;;;1999.90;999.90;;;;;;;0.33;46.00;102070.75;5058089;27;97406;-70
2022/03/05 10:25:40;;;;;;;1999.90;999.90;;;;;;;0.38;46.25;102067.72;5057980;27;97303;-70
2022/03/05 10:28:15;;;;;;;1999.90;999.90;;;;;;;0.43;46.23;102070.75;5055481;27;99511;-70
2022/03/05 10:30:45;;;;;;;1999.90;999.90;;;;;;;0.47;46.01;102078.03;5059212;27;96794;-69
2022/03/05 10:33:30;;;;;;;1999.90;999.90;;;;;;;0.48;45.65;102064.16;5056335;27;98986;-70
2022/03/05 10:35:59;;;;;;;1999.90;999.90;;;;;;;0.54;45.75;102069.91;5061823;27;96774;-69
2022/03/05 10:38:45;;;;;;;1999.90;999.90;;;;;;;0.60;45.16;102070.38;5061633;27;99899;-69
2022/03/05 10:41:14;;;;;;;1999.90;999.90;;;;;;;0.65;45.64;102056.00;5054810;27;97847;-69
2022/03/05 10:43:42;;;;;;;1999.90;999.90;;;;;;;0.68;45.81;102069.31;5054969;27;97120;-69
2022/03/05 10:46:10;;;;;;;1999.90;999.90;;;;;;;0.70;45.77;102059.88;5053886;27;97924;-70
2022/03/05 10:48:41;;;;;;;1999.90;999.90;;;;;;;0.71;45.79;102060.00;5051375;27;98259;-69
2022/03/05 10:51:14;;;;;;;1999.90;999.90;;;;;;;0.75;45.45;102050.69;5061237;27;97785;-70
2022/03/05 10:53:44;;;;;;;1999.90;999.90;;;;;;;0.75;45.93;102051.59;5057396;27;97783;-69
2022/03/05 10:56:30;;;;;;;1999.90;999.90;;;;;;;0.78;45.32;102046.59;5035267;27;98304;-69